createdAt,value
2023-04-28T00:00:47.472Z,8.10
2023-04-28T00:05:49.618Z,8.00
2023-04-28T00:10:51.440Z,7.90
2023-04-28T00:15:53.843Z,7.90
2023-04-28T00:20:58.687Z,7.80
2023-04-28T00:26:00.750Z,7.90
2023-04-28T00:31:02.892Z,7.70
2023-04-28T00:36:05.061Z,7.70
2023-04-28T00:41:07.251Z,7.60
2023-04-28T00:46:08.996Z,7.50
2023-04-28T00:51:10.904Z,7.30
2023-04-28T00:56:12.869Z,7.30
2023-04-28T01:01:14.640Z,7.20
2023-04-28T01:06:17.363Z,7.20
2023-04-28T01:11:19.229Z,7.20
2023-04-28T01:16:21.090Z,7.20
2023-04-28T01:21:32.917Z,7.10
2023-04-28T01:26:37.102Z,7.10
2023-04-28T01:31:39.071Z,7.10
2023-04-28T01:36:40.930Z,7.00
2023-04-28T01:41:43.235Z,7.00
2023-04-28T01:46:44.966Z,7.00
2023-04-28T01:51:46.715Z,7.00
2023-04-28T01:56:48.391Z,7.20
2023-04-28T02:01:50.132Z,7.20
2023-04-28T02:06:52.142Z,7.20
2023-04-28T02:11:53.809Z,7.20
2023-04-28T02:16:55.662Z,7.20
2023-04-28T02:21:57.334Z,7.20
2023-04-28T02:26:59.065Z,7.10
2023-04-28T02:32:01.576Z,7.20
2023-04-28T02:37:03.333Z,7.10
2023-04-28T02:42:05.349Z,7.10
2023-04-28T02:47:07.159Z,7.10
2023-04-28T02:52:09.075Z,7.10
2023-04-28T02:57:10.788Z,7.20
2023-04-28T03:02:12.805Z,7.10
2023-04-28T03:07:14.795Z,7.20
2023-04-28T03:12:16.541Z,7.30
2023-04-28T03:17:18.343Z,7.30
2023-04-28T03:22:20.046Z,7.40
2023-04-28T03:27:22.134Z,7.50
2023-04-28T03:32:23.803Z,7.30
2023-04-28T03:37:25.742Z,7.20
2023-04-28T03:42:28.821Z,7.20
2023-04-28T03:47:30.583Z,7.10
2023-04-28T03:52:35.162Z,7.20
2023-04-28T03:57:36.886Z,7.20
2023-04-28T04:02:38.839Z,7.30
2023-04-28T04:07:41.102Z,7.30
2023-04-28T04:12:42.862Z,7.40
2023-04-28T04:17:44.711Z,7.40
2023-04-28T04:22:46.493Z,7.50
2023-04-28T04:27:48.819Z,7.70
2023-04-28T04:32:50.664Z,7.80
2023-04-28T04:37:52.441Z,7.90
2023-04-28T04:42:54.151Z,7.80
2023-04-28T04:47:55.908Z,7.80
2023-04-28T04:52:58.252Z,7.80
2023-04-28T04:58:00.025Z,7.90
2023-04-28T05:03:01.979Z,7.90
2023-04-28T05:08:03.945Z,7.90
2023-04-28T05:13:06.055Z,8.10
2023-04-28T05:18:10.982Z,8.10
2023-04-28T05:23:12.998Z,8.30
2023-04-28T05:28:14.778Z,8.40
2023-04-28T05:33:16.498Z,8.60
2023-04-28T05:38:18.226Z,8.80
2023-04-28T05:43:19.949Z,9.00
2023-04-28T05:48:21.718Z,9.20
2023-04-28T05:53:23.426Z,9.20
2023-04-28T05:58:25.280Z,9.30
2023-04-28T06:03:27.183Z,9.40
2023-04-28T06:08:29.031Z,9.60
2023-04-28T06:13:30.985Z,9.80
2023-04-28T06:18:33.062Z,10.20
2023-04-28T06:23:35.648Z,10.30
2023-04-28T06:28:37.355Z,10.50
2023-04-28T06:33:40.659Z,10.80
2023-04-28T06:38:44.866Z,10.70
2023-04-28T06:43:47.559Z,11.00
2023-04-28T06:48:49.231Z,11.40
2023-04-28T06:53:53.141Z,11.60
2023-04-28T06:58:55.600Z,11.60
2023-04-28T07:03:57.520Z,11.90
2023-04-28T07:08:59.616Z,12.20
2023-04-28T07:14:01.290Z,12.60
2023-04-28T07:19:04.474Z,12.60
2023-04-28T07:24:06.516Z,12.90
2023-04-28T07:29:09.048Z,12.80
2023-04-28T07:34:10.893Z,12.70
2023-04-28T07:39:13.048Z,12.90
2023-04-28T07:44:14.991Z,13.10
2023-04-28T07:49:17.178Z,13.40
2023-04-28T07:54:19.154Z,13.50
2023-04-28T07:59:21.170Z,13.60
2023-04-28T08:04:23.307Z,13.90
2023-04-28T08:09:27.970Z,14.00
2023-04-28T08:14:29.731Z,14.20
2023-04-28T08:19:31.771Z,14.50
2023-04-28T08:24:36.813Z,14.50
2023-04-28T08:29:39.224Z,14.50
2023-04-28T08:34:40.942Z,15.00
2023-04-28T08:39:42.822Z,15.30
2023-04-28T08:44:45.281Z,15.90
2023-04-28T08:49:48.519Z,16.20
2023-04-28T08:54:51.261Z,16.40
2023-04-28T08:59:53.884Z,16.30
2023-04-28T09:04:55.830Z,16.30
2023-04-28T09:10:15.946Z,16.30
2023-04-28T09:15:35.263Z,16.30
2023-04-28T09:20:37.321Z,16.30
2023-04-28T09:25:39.452Z,16.30
2023-04-28T09:30:41.298Z,16.30
2023-04-28T09:35:45.311Z,16.40
2023-04-28T09:40:49.725Z,16.10
2023-04-28T09:45:51.936Z,16.50
2023-04-28T09:50:55.525Z,16.50
2023-04-28T09:55:59.569Z,16.30
2023-04-28T10:01:01.687Z,16.20
2023-04-28T10:06:13.688Z,16.50
2023-04-28T10:11:16.294Z,16.50
2023-04-28T10:16:19.452Z,16.50
2023-04-28T10:21:23.538Z,16.00
2023-04-28T10:26:36.595Z,16.40
2023-04-28T10:31:38.584Z,16.70
2023-04-28T10:36:52.688Z,17.10
2023-04-28T10:41:54.720Z,17.20
2023-04-28T10:47:04.627Z,17.10
2023-04-28T10:52:38.787Z,16.80
2023-04-28T10:57:40.521Z,16.80
2023-04-28T11:02:44.718Z,16.30
2023-04-28T11:08:19.012Z,16.30
2023-04-28T11:13:28.539Z,16.10
2023-04-28T11:18:31.700Z,15.80
2023-04-28T11:23:33.566Z,15.60
2023-04-28T11:28:36.689Z,15.90
2023-04-28T11:33:39.621Z,15.70
2023-04-28T11:38:49.045Z,15.40
2023-04-28T11:43:50.987Z,15.70
2023-04-28T11:49:06.041Z,15.50
2023-04-28T11:54:11.184Z,15.80
2023-04-28T11:59:13.877Z,15.30
2023-04-28T12:04:27.888Z,15.80
2023-04-28T12:09:29.905Z,16.60
2023-04-28T12:14:35.449Z,16.80
2023-04-28T12:19:45.121Z,17.10
2023-04-28T12:24:47.002Z,17.60
2023-04-28T12:29:48.994Z,18.40
2023-04-28T12:34:51.335Z,18.60
2023-04-28T12:39:53.033Z,18.20
2023-04-28T12:44:57.301Z,18.20
2023-04-28T12:49:59.198Z,17.80
2023-04-28T12:55:01.020Z,17.40
2023-04-28T13:00:03.165Z,16.90
2023-04-28T13:05:05.440Z,17.60
2023-04-28T13:10:08.331Z,17.90
2023-04-28T13:15:10.896Z,18.10
2023-04-28T13:20:12.723Z,17.40
2023-04-28T13:25:15.201Z,17.90
2023-04-28T13:30:16.994Z,18.00
2023-04-28T13:35:19.244Z,18.10
2023-04-28T13:40:21.191Z,18.00
2023-04-28T13:45:23.024Z,16.50
2023-04-28T13:50:24.816Z,17.00
2023-04-28T13:55:30.566Z,16.40
2023-04-28T14:00:32.752Z,16.70
2023-04-28T14:05:48.319Z,16.50
2023-04-28T14:10:51.740Z,16.70
2023-04-28T14:15:59.465Z,16.70
2023-04-28T14:21:02.352Z,17.10
2023-04-28T14:26:04.223Z,17.30
2023-04-28T14:31:07.427Z,17.10
2023-04-28T14:36:10.281Z,17.10
2023-04-28T14:41:12.068Z,17.40
2023-04-28T14:46:14.041Z,17.60
2023-04-28T14:51:15.823Z,17.70
2023-04-28T14:56:19.790Z,18.00
2023-04-28T15:01:21.721Z,18.00
2023-04-28T15:06:23.478Z,17.60
2023-04-28T15:11:25.769Z,17.40
2023-04-28T15:16:27.540Z,17.20
2023-04-28T15:21:31.051Z,17.00
2023-04-28T15:26:33.048Z,16.70
2023-04-28T15:31:34.963Z,16.70
2023-04-28T15:36:40.353Z,16.50
2023-04-28T15:41:42.506Z,16.40
2023-04-28T15:46:44.964Z,16.10
2023-04-28T15:51:46.825Z,16.00
2023-04-28T15:56:48.635Z,16.10
2023-04-28T16:01:50.332Z,16.00
2023-04-28T16:06:52.905Z,16.00
2023-04-28T16:11:55.336Z,15.90
2023-04-28T16:16:59.664Z,15.90
2023-04-28T16:22:01.570Z,15.60
2023-04-28T16:27:03.599Z,15.60
2023-04-28T16:32:06.300Z,15.50
2023-04-28T16:37:08.271Z,15.30
2023-04-28T16:42:10.299Z,15.20
2023-04-28T16:47:14.360Z,15.20
2023-04-28T16:52:16.652Z,15.10
2023-04-28T16:57:18.378Z,15.10
2023-04-28T17:02:20.248Z,15.00
2023-04-28T17:07:24.175Z,14.90
2023-04-28T17:12:27.353Z,14.90
2023-04-28T17:17:29.172Z,14.90
2023-04-28T17:22:32.057Z,14.80
2023-04-28T17:27:33.755Z,14.70
2023-04-28T17:32:36.600Z,14.60
2023-04-28T17:37:38.486Z,14.70
2023-04-28T17:42:40.255Z,14.70
2023-04-28T17:47:41.991Z,14.70
2023-04-28T17:52:44.263Z,14.70
2023-04-28T17:57:46.210Z,14.70
2023-04-28T18:02:47.900Z,14.50
2023-04-28T18:07:49.954Z,14.60
2023-04-28T18:12:53.010Z,14.60
2023-04-28T18:17:56.983Z,14.60
2023-04-28T18:23:01.240Z,14.60
2023-04-28T18:28:03.692Z,14.60
2023-04-28T18:33:08.001Z,14.60
2023-04-28T18:38:09.801Z,14.60
2023-04-28T18:43:11.744Z,14.60
2023-04-28T18:48:13.628Z,14.50
2023-04-28T18:53:15.671Z,14.50
2023-04-28T18:58:18.377Z,14.40
2023-04-28T19:03:23.852Z,14.40
2023-04-28T19:08:25.616Z,14.40
2023-04-28T19:13:27.346Z,14.40
2023-04-28T19:18:31.469Z,14.40
2023-04-28T19:23:33.699Z,14.30
2023-04-28T19:28:35.926Z,14.20
2023-04-28T19:33:37.857Z,14.10
2023-04-28T19:38:40.233Z,14.10
2023-04-28T19:43:43.436Z,14.00
2023-04-28T19:48:46.526Z,14.10
2023-04-28T19:53:49.370Z,14.10
2023-04-28T19:58:51.133Z,14.10
2023-04-28T20:03:54.147Z,14.00
2023-04-28T20:08:55.938Z,13.80
2023-04-28T20:13:57.854Z,13.70
2023-04-28T20:18:59.562Z,13.60
2023-04-28T20:24:01.261Z,13.60
2023-04-28T20:29:03.291Z,13.40
2023-04-28T20:34:04.993Z,13.40
2023-04-28T20:39:10.895Z,13.40
2023-04-28T20:44:12.711Z,13.40
2023-04-28T20:49:15.146Z,13.20
2023-04-28T20:54:16.859Z,13.10
2023-04-28T20:59:18.542Z,13.30
2023-04-28T21:04:20.349Z,13.50
2023-04-28T21:09:25.884Z,13.50
2023-04-28T21:14:27.720Z,13.50
2023-04-28T21:19:32.542Z,13.60
2023-04-28T21:24:34.244Z,13.50
2023-04-28T21:29:35.918Z,13.10
2023-04-28T21:34:37.656Z,13.00
2023-04-28T21:39:39.452Z,13.00
2023-04-28T21:44:41.624Z,13.00
2023-04-28T21:49:43.957Z,13.00
2023-04-28T21:54:47.675Z,12.90
2023-04-28T21:59:50.077Z,12.90
2023-04-28T22:04:52.074Z,12.70
2023-04-28T22:09:54.326Z,12.60
2023-04-28T22:14:56.173Z,12.40
2023-04-28T22:19:58.849Z,12.30
2023-04-28T22:25:00.680Z,12.50
2023-04-28T22:30:02.417Z,12.50
2023-04-28T22:35:04.659Z,12.60
2023-04-28T22:40:08.447Z,12.50
2023-04-28T22:45:10.961Z,12.50
2023-04-28T22:50:12.858Z,12.40
2023-04-28T22:55:14.706Z,12.40
2023-04-28T23:00:16.612Z,12.40
2023-04-28T23:05:18.401Z,12.40
2023-04-28T23:10:20.074Z,12.30
2023-04-28T23:15:21.769Z,12.30
2023-04-28T23:20:23.434Z,12.50
2023-04-28T23:25:25.929Z,12.60
2023-04-28T23:30:27.591Z,12.70
2023-04-28T23:35:29.587Z,12.70
2023-04-28T23:40:31.445Z,12.70
2023-04-28T23:45:33.195Z,12.70
2023-04-28T23:50:34.959Z,12.70
2023-04-28T23:55:36.859Z,12.70
